sensor_id;sensor_type;location;lat;lon;timestamp;P1;durP1;ratioP1;P2;durP2;ratioP2
17592;SDS011;8915;51.760;14.300;2022-11-15T00:00:07;26.80;;;15.27;;
17592;SDS011;8915;51.760;14.300;2022-11-15T00:02:55;29.27;;;14.57;;
17592;SDS011;8915;51.760;14.300;2022-11-15T00:05:40;28.83;;;15.83;;
17592;SDS011;8915;51.760;14.300;2022-11-15T00:08:28;25.87;;;15.27;;
17592;SDS011;8915;51.760;14.300;2022-11-15T00:11:13;28.90;;;15.37;;
17592;SDS011;8915;51.760;14.300;2022-11-15T00:13:58;30.27;;;16.93;;
17592;SDS011;8915;51.760;14.300;2022-11-15T00:16:46;27.70;;;15.97;;
17592;SDS011;8915;51.760;14.300;2022-11-15T00:19:32;34.20;;;15.77;;
17592;SDS011;8915;51.760;14.300;2022-11-15T00:22:18;27.13;;;14.83;;
17592;SDS011;8915;51.760;14.300;2022-11-15T00:25:03;24.40;;;13.53;;
17592;SDS011;8915;51.760;14.300;2022-11-15T00:27:49;25.60;;;15.33;;
17592;SDS011;8915;51.760;14.300;2022-11-15T00:30:35;30.30;;;14.77;;
17592;SDS011;8915;51.760;14.300;2022-11-15T00:33:20;30.73;;;16.63;;
17592;SDS011;8915;51.760;14.300;2022-11-15T00:36:07;30.23;;;15.43;;
17592;SDS011;8915;51.760;14.300;2022-11-15T00:38:54;28.17;;;15.73;;
17592;SDS011;8915;51.760;14.300;2022-11-15T00:41:39;28.10;;;15.87;;
17592;SDS011;8915;51.760;14.300;2022-11-15T00:44:24;30.73;;;15.23;;
17592;SDS011;8915;51.760;14.300;2022-11-15T00:47:09;26.20;;;14.83;;
17592;SDS011;8915;51.760;14.300;2022-11-15T00:49:53;30.23;;;15.93;;
17592;SDS011;8915;51.760;14.300;2022-11-15T00:52:40;25.60;;;14.80;;
17592;SDS011;8915;51.760;14.300;2022-11-15T00:55:25;30.47;;;16.37;;
17592;SDS011;8915;51.760;14.300;2022-11-15T00:58:10;30.60;;;15.27;;
17592;SDS011;8915;51.760;14.300;2022-11-15T01:00:55;31.70;;;15.97;;
17592;SDS011;8915;51.760;14.300;2022-11-15T01:03:40;30.60;;;15.47;;
17592;SDS011;8915;51.760;14.300;2022-11-15T01:06:25;29.47;;;15.00;;
17592;SDS011;8915;51.760;14.300;2022-11-15T01:09:12;27.00;;;14.87;;
17592;SDS011;8915;51.760;14.300;2022-11-15T01:11:57;30.60;;;15.23;;
17592;SDS011;8915;51.760;14.300;2022-11-15T01:14:42;27.47;;;15.43;;
17592;SDS011;8915;51.760;14.300;2022-11-15T01:17:27;30.73;;;15.77;;
17592;SDS011;8915;51.760;14.300;2022-11-15T01:20:13;27.00;;;14.63;;
17592;SDS011;8915;51.760;14.300;2022-11-15T01:22:58;24.43;;;15.07;;
17592;SDS011;8915;51.760;14.300;2022-11-15T01:25:44;30.00;;;15.03;;
17592;SDS011;8915;51.760;14.300;2022-11-15T01:28:30;31.00;;;16.17;;
17592;SDS011;8915;51.760;14.300;2022-11-15T01:31:16;33.90;;;15.77;;
17592;SDS011;8915;51.760;14.300;2022-11-15T01:34:02;28.40;;;15.43;;
17592;SDS011;8915;51.760;14.300;2022-11-15T01:36:47;28.13;;;14.43;;
17592;SDS011;8915;51.760;14.300;2022-11-15T01:39:32;24.93;;;14.80;;
17592;SDS011;8915;51.760;14.300;2022-11-15T01:42:18;28.87;;;14.70;;
17592;SDS011;8915;51.760;14.300;2022-11-15T01:45:03;26.43;;;14.17;;
17592;SDS011;8915;51.760;14.300;2022-11-15T01:47:50;26.73;;;14.80;;
17592;SDS011;8915;51.760;14.300;2022-11-15T01:50:39;26.43;;;15.17;;
17592;SDS011;8915;51.760;14.300;2022-11-15T01:53:24;28.50;;;15.17;;
17592;SDS011;8915;51.760;14.300;2022-11-15T01:56:11;25.23;;;14.37;;
17592;SDS011;8915;51.760;14.300;2022-11-15T01:59:02;26.60;;;14.03;;
17592;SDS011;8915;51.760;14.300;2022-11-15T02:01:49;29.10;;;14.87;;
17592;SDS011;8915;51.760;14.300;2022-11-15T02:04:36;25.90;;;14.47;;
17592;SDS011;8915;51.760;14.300;2022-11-15T02:07:24;31.17;;;15.73;;
17592;SDS011;8915;51.760;14.300;2022-11-15T02:10:10;26.63;;;14.30;;
17592;SDS011;8915;51.760;14.300;2022-11-15T02:12:57;24.00;;;12.97;;
17592;SDS011;8915;51.760;14.300;2022-11-15T02:15:49;27.07;;;14.73;;
17592;SDS011;8915;51.760;14.300;2022-11-15T02:18:44;24.60;;;14.10;;
17592;SDS011;8915;51.760;14.300;2022-11-15T02:21:35;25.43;;;14.27;;
17592;SDS011;8915;51.760;14.300;2022-11-15T02:24:30;28.83;;;14.93;;
17592;SDS011;8915;51.760;14.300;2022-11-15T02:27:39;26.40;;;13.97;;
17592;SDS011;8915;51.760;14.300;2022-11-15T02:30:39;34.87;;;15.53;;
17592;SDS011;8915;51.760;14.300;2022-11-15T02:33:30;24.97;;;14.27;;
17592;SDS011;8915;51.760;14.300;2022-11-15T02:36:25;24.47;;;13.50;;
17592;SDS011;8915;51.760;14.300;2022-11-15T02:39:18;24.97;;;13.17;;
17592;SDS011;8915;51.760;14.300;2022-11-15T02:42:13;29.97;;;15.10;;
17592;SDS011;8915;51.760;14.300;2022-11-15T02:45:22;22.70;;;13.00;;
17592;SDS011;8915;51.760;14.300;2022-11-15T02:48:13;25.73;;;14.10;;
17592;SDS011;8915;51.760;14.300;2022-11-15T02:51:00;26.53;;;14.97;;
17592;SDS011;8915;51.760;14.300;2022-11-15T02:53:46;25.10;;;14.27;;
17592;SDS011;8915;51.760;14.300;2022-11-15T02:56:31;28.67;;;15.07;;
17592;SDS011;8915;51.760;14.300;2022-11-15T02:59:23;32.90;;;15.23;;
17592;SDS011;8915;51.760;14.300;2022-11-15T03:02:36;29.37;;;14.30;;
17592;SDS011;8915;51.760;14.300;2022-11-15T03:05:35;27.07;;;14.50;;
17592;SDS011;8915;51.760;14.300;2022-11-15T03:08:26;26.07;;;14.43;;
17592;SDS011;8915;51.760;14.300;2022-11-15T03:11:16;30.23;;;15.10;;
17592;SDS011;8915;51.760;14.300;2022-11-15T03:14:07;32.80;;;17.07;;
17592;SDS011;8915;51.760;14.300;2022-11-15T03:17:05;29.83;;;16.30;;
17592;SDS011;8915;51.760;14.300;2022-11-15T03:19:57;30.23;;;16.13;;
17592;SDS011;8915;51.760;14.300;2022-11-15T03:22:46;32.10;;;16.67;;
17592;SDS011;8915;51.760;14.300;2022-11-15T03:25:34;30.37;;;16.53;;
17592;SDS011;8915;51.760;14.300;2022-11-15T03:28:30;36.07;;;18.70;;
17592;SDS011;8915;51.760;14.300;2022-11-15T03:31:21;34.30;;;17.20;;
17592;SDS011;8915;51.760;14.300;2022-11-15T03:34:27;33.77;;;16.67;;
17592;SDS011;8915;51.760;14.300;2022-11-15T03:37:16;41.43;;;17.77;;
17592;SDS011;8915;51.760;14.300;2022-11-15T03:40:07;39.37;;;18.53;;
17592;SDS011;8915;51.760;14.300;2022-11-15T03:42:54;35.40;;;17.13;;
17592;SDS011;8915;51.760;14.300;2022-11-15T03:45:48;31.10;;;17.57;;
17592;SDS011;8915;51.760;14.300;2022-11-15T03:48:39;38.33;;;18.93;;
17592;SDS011;8915;51.760;14.300;2022-11-15T03:51:28;32.90;;;17.27;;
17592;SDS011;8915;51.760;14.300;2022-11-15T03:54:14;34.70;;;17.93;;
17592;SDS011;8915;51.760;14.300;2022-11-15T03:57:00;37.07;;;17.73;;
17592;SDS011;8915;51.760;14.300;2022-11-15T03:59:46;34.60;;;17.27;;
17592;SDS011;8915;51.760;14.300;2022-11-15T04:02:31;36.43;;;18.07;;
17592;SDS011;8915;51.760;14.300;2022-11-15T04:05:17;36.20;;;18.43;;
17592;SDS011;8915;51.760;14.300;2022-11-15T04:08:02;39.70;;;19.03;;
17592;SDS011;8915;51.760;14.300;2022-11-15T04:10:48;37.23;;;20.67;;
17592;SDS011;8915;51.760;14.300;2022-11-15T04:13:34;43.50;;;19.73;;
17592;SDS011;8915;51.760;14.300;2022-11-15T04:16:19;40.30;;;19.67;;
17592;SDS011;8915;51.760;14.300;2022-11-15T04:19:04;43.77;;;20.57;;
17592;SDS011;8915;51.760;14.300;2022-11-15T04:22:07;33.73;;;17.83;;
17592;SDS011;8915;51.760;14.300;2022-11-15T04:25:10;44.37;;;20.63;;
17592;SDS011;8915;51.760;14.300;2022-11-15T04:27:56;38.07;;;18.53;;
17592;SDS011;8915;51.760;14.300;2022-11-15T04:30:42;47.83;;;19.47;;
17592;SDS011;8915;51.760;14.300;2022-11-15T04:33:27;37.67;;;17.63;;
17592;SDS011;8915;51.760;14.300;2022-11-15T04:36:12;40.60;;;20.43;;
17592;SDS011;8915;51.760;14.300;2022-11-15T04:39:15;40.00;;;18.13;;
17592;SDS011;8915;51.760;14.300;2022-11-15T04:42:00;43.40;;;20.50;;
17592;SDS011;8915;51.760;14.300;2022-11-15T04:44:45;43.13;;;20.27;;
17592;SDS011;8915;51.760;14.300;2022-11-15T04:47:31;36.73;;;17.90;;
17592;SDS011;8915;51.760;14.300;2022-11-15T04:50:16;46.40;;;18.63;;
17592;SDS011;8915;51.760;14.300;2022-11-15T04:53:02;42.03;;;19.30;;
17592;SDS011;8915;51.760;14.300;2022-11-15T04:55:47;37.13;;;17.53;;
17592;SDS011;8915;51.760;14.300;2022-11-15T04:58:32;34.90;;;17.20;;
17592;SDS011;8915;51.760;14.300;2022-11-15T05:01:17;34.07;;;16.90;;
17592;SDS011;8915;51.760;14.300;2022-11-15T05:04:03;36.10;;;17.63;;
17592;SDS011;8915;51.760;14.300;2022-11-15T05:07:03;38.83;;;19.13;;
17592;SDS011;8915;51.760;14.300;2022-11-15T05:09:48;38.73;;;18.27;;
17592;SDS011;8915;51.760;14.300;2022-11-15T05:12:33;32.00;;;17.30;;
17592;SDS011;8915;51.760;14.300;2022-11-15T05:15:18;30.37;;;16.40;;
17592;SDS011;8915;51.760;14.300;2022-11-15T05:18:03;36.17;;;17.83;;
17592;SDS011;8915;51.760;14.300;2022-11-15T05:20:50;35.10;;;17.20;;
17592;SDS011;8915;51.760;14.300;2022-11-15T05:23:35;34.07;;;17.87;;
17592;SDS011;8915;51.760;14.300;2022-11-15T05:26:20;35.30;;;16.93;;
17592;SDS011;8915;51.760;14.300;2022-11-15T05:29:05;33.20;;;17.67;;
17592;SDS011;8915;51.760;14.300;2022-11-15T05:31:50;32.03;;;16.57;;
17592;SDS011;8915;51.760;14.300;2022-11-15T05:34:35;36.90;;;17.67;;
17592;SDS011;8915;51.760;14.300;2022-11-15T05:37:22;36.03;;;17.40;;
17592;SDS011;8915;51.760;14.300;2022-11-15T05:40:08;34.67;;;17.30;;
17592;SDS011;8915;51.760;14.300;2022-11-15T05:42:53;32.43;;;16.63;;
17592;SDS011;8915;51.760;14.300;2022-11-15T05:45:38;41.87;;;16.63;;
17592;SDS011;8915;51.760;14.300;2022-11-15T05:48:23;32.70;;;15.77;;
17592;SDS011;8915;51.760;14.300;2022-11-15T05:51:08;32.90;;;17.07;;
17592;SDS011;8915;51.760;14.300;2022-11-15T05:53:56;33.60;;;17.47;;
17592;SDS011;8915;51.760;14.300;2022-11-15T05:56:43;30.60;;;16.90;;
17592;SDS011;8915;51.760;14.300;2022-11-15T05:59:28;39.57;;;17.60;;
17592;SDS011;8915;51.760;14.300;2022-11-15T06:02:14;32.33;;;16.90;;
17592;SDS011;8915;51.760;14.300;2022-11-15T06:05:00;35.30;;;17.33;;
17592;SDS011;8915;51.760;14.300;2022-11-15T06:07:45;34.17;;;17.00;;
17592;SDS011;8915;51.760;14.300;2022-11-15T06:10:31;29.97;;;15.67;;
17592;SDS011;8915;51.760;14.300;2022-11-15T06:13:17;38.87;;;15.83;;
17592;SDS011;8915;51.760;14.300;2022-11-15T06:16:03;28.83;;;16.13;;
17592;SDS011;8915;51.760;14.300;2022-11-15T06:18:48;28.43;;;15.57;;
17592;SDS011;8915;51.760;14.300;2022-11-15T06:21:33;36.20;;;17.53;;
17592;SDS011;8915;51.760;14.300;2022-11-15T06:24:18;40.73;;;17.53;;
17592;SDS011;8915;51.760;14.300;2022-11-15T06:27:04;37.80;;;18.90;;
17592;SDS011;8915;51.760;14.300;2022-11-15T06:29:51;38.07;;;16.53;;
17592;SDS011;8915;51.760;14.300;2022-11-15T06:32:35;44.63;;;19.47;;
17592;SDS011;8915;51.760;14.300;2022-11-15T06:35:20;39.90;;;16.97;;
17592;SDS011;8915;51.760;14.300;2022-11-15T06:38:06;32.33;;;16.63;;
17592;SDS011;8915;51.760;14.300;2022-11-15T06:40:53;35.30;;;17.43;;
17592;SDS011;8915;51.760;14.300;2022-11-15T06:43:40;31.83;;;15.77;;
17592;SDS011;8915;51.760;14.300;2022-11-15T06:46:25;37.77;;;16.57;;
17592;SDS011;8915;51.760;14.300;2022-11-15T06:49:10;31.70;;;15.77;;
17592;SDS011;8915;51.760;14.300;2022-11-15T06:51:55;38.97;;;17.80;;
17592;SDS011;8915;51.760;14.300;2022-11-15T06:54:40;40.60;;;19.40;;
17592;SDS011;8915;51.760;14.300;2022-11-15T06:57:25;42.43;;;23.90;;
17592;SDS011;8915;51.760;14.300;2022-11-15T07:00:12;41.17;;;20.87;;
17592;SDS011;8915;51.760;14.300;2022-11-15T07:02:59;39.17;;;19.53;;
17592;SDS011;8915;51.760;14.300;2022-11-15T07:05:50;45.77;;;21.27;;
17592;SDS011;8915;51.760;14.300;2022-11-15T07:08:36;44.33;;;20.20;;
17592;SDS011;8915;51.760;14.300;2022-11-15T07:11:21;42.77;;;20.73;;
17592;SDS011;8915;51.760;14.300;2022-11-15T07:14:06;44.20;;;22.43;;
17592;SDS011;8915;51.760;14.300;2022-11-15T07:16:53;39.43;;;20.40;;
17592;SDS011;8915;51.760;14.300;2022-11-15T07:19:38;45.90;;;20.63;;
17592;SDS011;8915;51.760;14.300;2022-11-15T07:22:23;42.83;;;19.47;;
17592;SDS011;8915;51.760;14.300;2022-11-15T07:25:08;41.83;;;20.97;;
17592;SDS011;8915;51.760;14.300;2022-11-15T07:27:54;46.63;;;21.00;;
17592;SDS011;8915;51.760;14.300;2022-11-15T07:30:39;48.10;;;22.00;;
17592;SDS011;8915;51.760;14.300;2022-11-15T07:33:25;49.27;;;22.50;;
17592;SDS011;8915;51.760;14.300;2022-11-15T07:36:10;43.27;;;22.53;;
17592;SDS011;8915;51.760;14.300;2022-11-15T07:38:55;45.47;;;20.63;;
17592;SDS011;8915;51.760;14.300;2022-11-15T07:41:41;55.47;;;22.53;;
17592;SDS011;8915;51.760;14.300;2022-11-15T07:44:27;51.53;;;22.33;;
17592;SDS011;8915;51.760;14.300;2022-11-15T07:47:12;52.73;;;22.47;;
17592;SDS011;8915;51.760;14.300;2022-11-15T07:49:58;52.40;;;23.33;;
17592;SDS011;8915;51.760;14.300;2022-11-15T07:52:43;55.17;;;22.47;;
17592;SDS011;8915;51.760;14.300;2022-11-15T07:55:29;45.47;;;22.37;;
17592;SDS011;8915;51.760;14.300;2022-11-15T07:58:14;50.67;;;21.87;;
17592;SDS011;8915;51.760;14.300;2022-11-15T08:01:01;57.13;;;23.33;;
17592;SDS011;8915;51.760;14.300;2022-11-15T08:03:47;51.40;;;23.73;;
17592;SDS011;8915;51.760;14.300;2022-11-15T08:06:33;55.77;;;25.60;;
17592;SDS011;8915;51.760;14.300;2022-11-15T08:09:19;58.00;;;22.57;;
17592;SDS011;8915;51.760;14.300;2022-11-15T08:12:04;54.33;;;22.23;;
17592;SDS011;8915;51.760;14.300;2022-11-15T08:14:49;55.50;;;25.27;;
17592;SDS011;8915;51.760;14.300;2022-11-15T08:17:34;49.97;;;23.37;;
17592;SDS011;8915;51.760;14.300;2022-11-15T08:20:19;61.17;;;25.73;;
17592;SDS011;8915;51.760;14.300;2022-11-15T08:23:06;62.13;;;26.80;;
17592;SDS011;8915;51.760;14.300;2022-11-15T08:25:51;67.33;;;27.87;;
17592;SDS011;8915;51.760;14.300;2022-11-15T08:28:37;66.13;;;26.30;;
17592;SDS011;8915;51.760;14.300;2022-11-15T08:31:22;52.83;;;23.57;;
17592;SDS011;8915;51.760;14.300;2022-11-15T08:34:07;59.90;;;25.57;;
17592;SDS011;8915;51.760;14.300;2022-11-15T08:36:52;69.93;;;27.00;;
17592;SDS011;8915;51.760;14.300;2022-11-15T08:39:38;63.60;;;26.80;;
17592;SDS011;8915;51.760;14.300;2022-11-15T08:42:24;56.73;;;25.00;;
17592;SDS011;8915;51.760;14.300;2022-11-15T08:45:09;58.97;;;25.87;;
17592;SDS011;8915;51.760;14.300;2022-11-15T08:47:54;58.70;;;25.47;;
17592;SDS011;8915;51.760;14.300;2022-11-15T08:50:40;58.10;;;24.53;;
17592;SDS011;8915;51.760;14.300;2022-11-15T08:53:27;62.20;;;25.97;;
17592;SDS011;8915;51.760;14.300;2022-11-15T08:56:14;59.63;;;26.47;;
17592;SDS011;8915;51.760;14.300;2022-11-15T08:59:00;65.37;;;26.33;;
17592;SDS011;8915;51.760;14.300;2022-11-15T09:01:45;67.70;;;27.30;;
17592;SDS011;8915;51.760;14.300;2022-11-15T09:04:30;77.17;;;27.30;;
17592;SDS011;8915;51.760;14.300;2022-11-15T09:07:15;73.03;;;29.37;;
17592;SDS011;8915;51.760;14.300;2022-11-15T09:10:01;64.13;;;25.23;;
17592;SDS011;8915;51.760;14.300;2022-11-15T09:12:48;66.77;;;27.27;;
17592;SDS011;8915;51.760;14.300;2022-11-15T09:15:33;66.27;;;25.37;;
17592;SDS011;8915;51.760;14.300;2022-11-15T09:18:18;73.50;;;28.80;;
17592;SDS011;8915;51.760;14.300;2022-11-15T09:21:05;68.03;;;26.87;;
17592;SDS011;8915;51.760;14.300;2022-11-15T09:23:50;62.77;;;26.20;;
17592;SDS011;8915;51.760;14.300;2022-11-15T09:26:36;64.43;;;26.60;;
17592;SDS011;8915;51.760;14.300;2022-11-15T09:29:22;68.03;;;26.50;;
17592;SDS011;8915;51.760;14.300;2022-11-15T09:32:07;64.87;;;27.23;;
17592;SDS011;8915;51.760;14.300;2022-11-15T09:34:52;66.13;;;26.57;;
17592;SDS011;8915;51.760;14.300;2022-11-15T09:37:37;64.90;;;25.97;;
17592;SDS011;8915;51.760;14.300;2022-11-15T09:40:22;68.13;;;27.67;;
17592;SDS011;8915;51.760;14.300;2022-11-15T09:43:24;75.40;;;27.13;;
17592;SDS011;8915;51.760;14.300;2022-11-15T09:46:17;64.03;;;26.00;;
17592;SDS011;8915;51.760;14.300;2022-11-15T09:49:11;72.17;;;27.90;;
17592;SDS011;8915;51.760;14.300;2022-11-15T09:51:58;79.60;;;27.97;;
17592;SDS011;8915;51.760;14.300;2022-11-15T09:54:27;72.40;;;27.27;;
17592;SDS011;8915;51.760;14.300;2022-11-15T09:56:56;77.17;;;28.17;;
17592;SDS011;8915;51.760;14.300;2022-11-15T09:59:37;73.70;;;27.20;;
17592;SDS011;8915;51.760;14.300;2022-11-15T10:02:17;74.93;;;26.60;;
17592;SDS011;8915;51.760;14.300;2022-11-15T10:04:57;81.30;;;29.57;;
17592;SDS011;8915;51.760;14.300;2022-11-15T10:07:25;79.00;;;30.17;;
17592;SDS011;8915;51.760;14.300;2022-11-15T10:09:59;68.03;;;25.80;;
17592;SDS011;8915;51.760;14.300;2022-11-15T10:12:31;81.73;;;30.47;;
17592;SDS011;8915;51.760;14.300;2022-11-15T10:15:00;76.83;;;29.53;;
17592;SDS011;8915;51.760;14.300;2022-11-15T10:17:43;81.90;;;28.37;;
17592;SDS011;8915;51.760;14.300;2022-11-15T10:20:22;74.00;;;25.27;;
17592;SDS011;8915;51.760;14.300;2022-11-15T10:22:52;72.70;;;26.63;;
17592;SDS011;8915;51.760;14.300;2022-11-15T10:25:22;81.20;;;27.60;;
17592;SDS011;8915;51.760;14.300;2022-11-15T10:27:52;80.50;;;28.10;;
17592;SDS011;8915;51.760;14.300;2022-11-15T10:30:20;88.07;;;28.10;;
17592;SDS011;8915;51.760;14.300;2022-11-15T10:32:49;80.77;;;28.87;;
17592;SDS011;8915;51.760;14.300;2022-11-15T10:35:16;79.00;;;28.07;;
17592;SDS011;8915;51.760;14.300;2022-11-15T10:37:45;90.37;;;29.93;;
17592;SDS011;8915;51.760;14.300;2022-11-15T10:40:15;72.77;;;28.83;;
17592;SDS011;8915;51.760;14.300;2022-11-15T10:42:43;86.93;;;31.70;;
17592;SDS011;8915;51.760;14.300;2022-11-15T10:45:22;84.13;;;28.77;;
17592;SDS011;8915;51.760;14.300;2022-11-15T10:47:51;89.87;;;32.53;;
17592;SDS011;8915;51.760;14.300;2022-11-15T10:50:27;83.33;;;30.50;;
17592;SDS011;8915;51.760;14.300;2022-11-15T10:52:56;78.10;;;27.70;;
17592;SDS011;8915;51.760;14.300;2022-11-15T10:55:24;80.77;;;26.47;;
17592;SDS011;8915;51.760;14.300;2022-11-15T10:57:54;77.23;;;27.60;;
17592;SDS011;8915;51.760;14.300;2022-11-15T11:00:34;71.47;;;25.30;;
17592;SDS011;8915;51.760;14.300;2022-11-15T11:03:06;70.73;;;25.10;;
17592;SDS011;8915;51.760;14.300;2022-11-15T11:05:50;73.47;;;24.37;;
17592;SDS011;8915;51.760;14.300;2022-11-15T11:08:29;65.57;;;24.37;;
17592;SDS011;8915;51.760;14.300;2022-11-15T11:10:57;65.97;;;24.53;;
17592;SDS011;8915;51.760;14.300;2022-11-15T11:13:26;63.07;;;23.30;;
17592;SDS011;8915;51.760;14.300;2022-11-15T11:15:54;63.47;;;23.23;;
17592;SDS011;8915;51.760;14.300;2022-11-15T11:18:28;54.90;;;20.47;;
17592;SDS011;8915;51.760;14.300;2022-11-15T11:21:01;51.43;;;20.57;;
17592;SDS011;8915;51.760;14.300;2022-11-15T11:23:35;49.43;;;21.80;;
17592;SDS011;8915;51.760;14.300;2022-11-15T11:26:11;47.17;;;21.30;;
17592;SDS011;8915;51.760;14.300;2022-11-15T11:28:54;46.73;;;18.83;;
17592;SDS011;8915;51.760;14.300;2022-11-15T11:31:29;44.70;;;18.20;;
17592;SDS011;8915;51.760;14.300;2022-11-15T11:34:08;43.33;;;19.53;;
17592;SDS011;8915;51.760;14.300;2022-11-15T11:36:42;37.83;;;17.27;;
17592;SDS011;8915;51.760;14.300;2022-11-15T11:39:22;36.00;;;17.13;;
17592;SDS011;8915;51.760;14.300;2022-11-15T11:41:56;32.90;;;15.53;;
17592;SDS011;8915;51.760;14.300;2022-11-15T11:44:32;26.70;;;14.23;;
17592;SDS011;8915;51.760;14.300;2022-11-15T11:47:03;24.90;;;12.73;;
17592;SDS011;8915;51.760;14.300;2022-11-15T11:49:39;23.83;;;12.40;;
17592;SDS011;8915;51.760;14.300;2022-11-15T11:52:11;21.03;;;12.07;;
17592;SDS011;8915;51.760;14.300;2022-11-15T11:54:46;15.00;;;10.07;;
17592;SDS011;8915;51.760;14.300;2022-11-15T11:57:22;14.67;;;8.80;;
17592;SDS011;8915;51.760;14.300;2022-11-15T11:59:58;12.93;;;8.03;;
17592;SDS011;8915;51.760;14.300;2022-11-15T12:02:38;13.17;;;7.40;;
17592;SDS011;8915;51.760;14.300;2022-11-15T12:05:11;12.17;;;7.33;;
17592;SDS011;8915;51.760;14.300;2022-11-15T12:07:42;10.77;;;6.80;;
17592;SDS011;8915;51.760;14.300;2022-11-15T12:10:19;13.17;;;7.70;;
17592;SDS011;8915;51.760;14.300;2022-11-15T12:12:51;12.73;;;8.10;;
17592;SDS011;8915;51.760;14.300;2022-11-15T12:15:23;9.20;;;6.83;;
17592;SDS011;8915;51.760;14.300;2022-11-15T12:17:52;9.73;;;6.43;;
17592;SDS011;8915;51.760;14.300;2022-11-15T12:20:24;8.67;;;6.47;;
17592;SDS011;8915;51.760;14.300;2022-11-15T12:22:53;11.37;;;6.10;;
17592;SDS011;8915;51.760;14.300;2022-11-15T12:25:24;11.10;;;6.40;;
17592;SDS011;8915;51.760;14.300;2022-11-15T12:27:56;9.03;;;6.33;;
17592;SDS011;8915;51.760;14.300;2022-11-15T12:30:27;11.03;;;6.93;;
17592;SDS011;8915;51.760;14.300;2022-11-15T12:33:17;9.40;;;6.13;;
17592;SDS011;8915;51.760;14.300;2022-11-15T12:35:58;8.80;;;5.77;;
17592;SDS011;8915;51.760;14.300;2022-11-15T12:41:24;8.93;;;5.87;;
17592;SDS011;8915;51.760;14.300;2022-11-15T12:43:52;8.93;;;5.80;;
17592;SDS011;8915;51.760;14.300;2022-11-15T12:46:20;8.57;;;5.70;;
17592;SDS011;8915;51.760;14.300;2022-11-15T12:49:02;7.63;;;5.40;;
17592;SDS011;8915;51.760;14.300;2022-11-15T12:54:52;9.70;;;5.43;;
17592;SDS011;8915;51.760;14.300;2022-11-15T12:57:27;7.67;;;5.40;;
17592;SDS011;8915;51.760;14.300;2022-11-15T12:59:57;8.37;;;5.53;;
17592;SDS011;8915;51.760;14.300;2022-11-15T13:02:27;10.03;;;5.73;;
17592;SDS011;8915;51.760;14.300;2022-11-15T13:08:03;9.83;;;5.90;;
17592;SDS011;8915;51.760;14.300;2022-11-15T13:10:30;9.93;;;5.23;;
17592;SDS011;8915;51.760;14.300;2022-11-15T13:12:58;7.37;;;5.27;;
17592;SDS011;8915;51.760;14.300;2022-11-15T13:15:30;7.90;;;5.60;;
17592;SDS011;8915;51.760;14.300;2022-11-15T13:18:25;8.63;;;5.33;;
17592;SDS011;8915;51.760;14.300;2022-11-15T13:20:54;9.37;;;5.90;;
17592;SDS011;8915;51.760;14.300;2022-11-15T13:23:22;8.33;;;5.17;;
17592;SDS011;8915;51.760;14.300;2022-11-15T13:25:53;6.77;;;4.70;;
17592;SDS011;8915;51.760;14.300;2022-11-15T13:28:30;7.40;;;4.63;;
17592;SDS011;8915;51.760;14.300;2022-11-15T13:31:00;7.43;;;5.57;;
17592;SDS011;8915;51.760;14.300;2022-11-15T13:33:30;9.03;;;5.50;;
17592;SDS011;8915;51.760;14.300;2022-11-15T13:35:58;8.37;;;5.47;;
17592;SDS011;8915;51.760;14.300;2022-11-15T13:38:28;7.13;;;5.10;;
17592;SDS011;8915;51.760;14.300;2022-11-15T13:40:56;6.00;;;4.30;;
17592;SDS011;8915;51.760;14.300;2022-11-15T13:43:26;8.57;;;5.73;;
17592;SDS011;8915;51.760;14.300;2022-11-15T13:46:07;7.90;;;5.13;;
17592;SDS011;8915;51.760;14.300;2022-11-15T13:48:36;6.63;;;5.30;;
17592;SDS011;8915;51.760;14.300;2022-11-15T13:51:04;6.43;;;4.80;;
17592;SDS011;8915;51.760;14.300;2022-11-15T13:53:35;7.63;;;5.47;;
17592;SDS011;8915;51.760;14.300;2022-11-15T13:56:05;8.43;;;4.80;;
17592;SDS011;8915;51.760;14.300;2022-11-15T13:58:32;9.00;;;4.63;;
17592;SDS011;8915;51.760;14.300;2022-11-15T14:00:59;7.27;;;4.93;;
17592;SDS011;8915;51.760;14.300;2022-11-15T14:03:27;7.40;;;5.30;;
17592;SDS011;8915;51.760;14.300;2022-11-15T14:06:02;7.83;;;5.20;;
17592;SDS011;8915;51.760;14.300;2022-11-15T14:08:31;7.80;;;5.63;;
17592;SDS011;8915;51.760;14.300;2022-11-15T14:11:11;7.77;;;5.07;;
17592;SDS011;8915;51.760;14.300;2022-11-15T14:13:41;9.63;;;4.90;;
17592;SDS011;8915;51.760;14.300;2022-11-15T14:16:12;8.73;;;5.50;;
17592;SDS011;8915;51.760;14.300;2022-11-15T14:18:41;8.77;;;5.70;;
17592;SDS011;8915;51.760;14.300;2022-11-15T14:21:09;9.50;;;6.23;;
17592;SDS011;8915;51.760;14.300;2022-11-15T14:23:36;7.83;;;5.50;;
17592;SDS011;8915;51.760;14.300;2022-11-15T14:26:02;14.37;;;6.40;;
17592;SDS011;8915;51.760;14.300;2022-11-15T14:28:31;7.83;;;5.73;;
17592;SDS011;8915;51.760;14.300;2022-11-15T14:31:01;8.83;;;5.80;;
17592;SDS011;8915;51.760;14.300;2022-11-15T14:33:33;9.97;;;6.13;;
17592;SDS011;8915;51.760;14.300;2022-11-15T14:36:03;11.27;;;6.27;;
17592;SDS011;8915;51.760;14.300;2022-11-15T14:38:31;10.37;;;6.77;;
17592;SDS011;8915;51.760;14.300;2022-11-15T14:40:58;9.23;;;6.30;;
17592;SDS011;8915;51.760;14.300;2022-11-15T14:43:24;11.70;;;6.20;;
17592;SDS011;8915;51.760;14.300;2022-11-15T14:45:52;14.40;;;6.70;;
17592;SDS011;8915;51.760;14.300;2022-11-15T14:48:18;7.33;;;5.97;;
17592;SDS011;8915;51.760;14.300;2022-11-15T14:50:47;9.90;;;6.03;;
17592;SDS011;8915;51.760;14.300;2022-11-15T14:53:14;11.23;;;6.53;;
17592;SDS011;8915;51.760;14.300;2022-11-15T14:55:42;12.13;;;7.47;;
17592;SDS011;8915;51.760;14.300;2022-11-15T14:58:09;13.30;;;9.20;;
17592;SDS011;8915;51.760;14.300;2022-11-15T15:00:36;17.30;;;11.53;;
17592;SDS011;8915;51.760;14.300;2022-11-15T15:03:05;12.40;;;8.93;;
17592;SDS011;8915;51.760;14.300;2022-11-15T15:05:33;14.30;;;8.60;;
17592;SDS011;8915;51.760;14.300;2022-11-15T15:08:01;12.77;;;8.80;;
17592;SDS011;8915;51.760;14.300;2022-11-15T15:10:29;13.80;;;8.60;;
17592;SDS011;8915;51.760;14.300;2022-11-15T15:12:58;10.90;;;8.10;;
17592;SDS011;8915;51.760;14.300;2022-11-15T15:15:25;11.30;;;7.80;;
17592;SDS011;8915;51.760;14.300;2022-11-15T15:17:55;11.90;;;7.87;;
17592;SDS011;8915;51.760;14.300;2022-11-15T15:20:23;14.30;;;9.33;;
17592;SDS011;8915;51.760;14.300;2022-11-15T15:22:49;17.47;;;10.63;;
17592;SDS011;8915;51.760;14.300;2022-11-15T15:25:19;14.40;;;8.97;;
17592;SDS011;8915;51.760;14.300;2022-11-15T15:27:47;16.37;;;9.47;;
17592;SDS011;8915;51.760;14.300;2022-11-15T15:30:20;12.57;;;8.90;;
17592;SDS011;8915;51.760;14.300;2022-11-15T15:33:24;14.57;;;9.07;;
17592;SDS011;8915;51.760;14.300;2022-11-15T15:39:40;15.40;;;9.13;;
17592;SDS011;8915;51.760;14.300;2022-11-15T15:42:37;15.33;;;9.33;;
17592;SDS011;8915;51.760;14.300;2022-11-15T15:45:53;15.83;;;9.40;;
17592;SDS011;8915;51.760;14.300;2022-11-15T15:48:37;11.33;;;8.03;;
17592;SDS011;8915;51.760;14.300;2022-11-15T15:55:04;13.37;;;8.17;;
17592;SDS011;8915;51.760;14.300;2022-11-15T15:58:27;11.90;;;8.30;;
17592;SDS011;8915;51.760;14.300;2022-11-15T16:01:43;9.77;;;7.47;;
17592;SDS011;8915;51.760;14.300;2022-11-15T16:04:50;19.27;;;7.63;;
17592;SDS011;8915;51.760;14.300;2022-11-15T16:08:19;13.80;;;8.67;;